sensor_id;sensor_type;location;lat;lon;timestamp;P1;durP1;ratioP1;P2;durP2;ratioP2
40695;SDS011;40425;51.102;17.208;2022-09-27T00:03:08;39.78;;;29.30;;
40695;SDS011;40425;51.102;17.208;2022-09-27T00:08:12;39.70;;;27.60;;
40695;SDS011;40425;51.102;17.208;2022-09-27T00:13:13;34.80;;;25.75;;
40695;SDS011;40425;51.102;17.208;2022-09-27T00:18:14;38.55;;;27.65;;
40695;SDS011;40425;51.102;17.208;2022-09-27T00:23:16;40.60;;;28.15;;
40695;SDS011;40425;51.102;17.208;2022-09-27T00:28:16;40.55;;;28.85;;
40695;SDS011;40425;51.102;17.208;2022-09-27T00:33:17;33.80;;;25.10;;
40695;SDS011;40425;51.102;17.208;2022-09-27T00:38:18;34.15;;;24.52;;
40695;SDS011;40425;51.102;17.208;2022-09-27T00:43:20;30.95;;;22.63;;
40695;SDS011;40425;51.102;17.208;2022-09-27T00:48:23;31.27;;;21.23;;
40695;SDS011;40425;51.102;17.208;2022-09-27T00:53:34;32.30;;;20.45;;
40695;SDS011;40425;51.102;17.208;2022-09-27T00:58:44;28.85;;;20.80;;
40695;SDS011;40425;51.102;17.208;2022-09-27T01:08:50;31.30;;;21.98;;
40695;SDS011;40425;51.102;17.208;2022-09-27T01:24:41;26.95;;;18.95;;
40695;SDS011;40425;51.102;17.208;2022-09-27T01:35:21;27.92;;;19.45;;
40695;SDS011;40425;51.102;17.208;2022-09-27T01:40:44;27.40;;;18.67;;
40695;SDS011;40425;51.102;17.208;2022-09-27T01:56:16;313.03;;;20.60;;
40695;SDS011;40425;51.102;17.208;2022-09-27T02:01:21;143.50;;;17.57;;
40695;SDS011;40425;51.102;17.208;2022-09-27T02:06:36;53.57;;;17.63;;
40695;SDS011;40425;51.102;17.208;2022-09-27T02:11:53;19.37;;;14.43;;
40695;SDS011;40425;51.102;17.208;2022-09-27T02:22:35;57.33;;;15.90;;
40695;SDS011;40425;51.102;17.208;2022-09-27T02:32:55;25.70;;;17.97;;
40695;SDS011;40425;51.102;17.208;2022-09-27T02:37:56;24.37;;;17.07;;
40695;SDS011;40425;51.102;17.208;2022-09-27T02:42:57;24.37;;;15.97;;
40695;SDS011;40425;51.102;17.208;2022-09-27T02:48:03;25.60;;;18.40;;
40695;SDS011;40425;51.102;17.208;2022-09-27T02:58:46;25.27;;;18.23;;
40695;SDS011;40425;51.102;17.208;2022-09-27T03:04:15;31.80;;;20.53;;
40695;SDS011;40425;51.102;17.208;2022-09-27T03:09:27;30.00;;;22.10;;
40695;SDS011;40425;51.102;17.208;2022-09-27T03:14:41;30.77;;;19.50;;
40695;SDS011;40425;51.102;17.208;2022-09-27T03:19:42;32.83;;;20.67;;
40695;SDS011;40425;51.102;17.208;2022-09-27T03:24:43;27.20;;;18.90;;
40695;SDS011;40425;51.102;17.208;2022-09-27T03:29:44;28.13;;;18.30;;
40695;SDS011;40425;51.102;17.208;2022-09-27T03:34:45;30.60;;;18.27;;
40695;SDS011;40425;51.102;17.208;2022-09-27T03:39:46;25.60;;;16.83;;
40695;SDS011;40425;51.102;17.208;2022-09-27T03:44:47;23.33;;;17.60;;
40695;SDS011;40425;51.102;17.208;2022-09-27T03:49:50;25.17;;;17.77;;
40695;SDS011;40425;51.102;17.208;2022-09-27T03:54:51;22.23;;;16.57;;
40695;SDS011;40425;51.102;17.208;2022-09-27T03:59:51;25.17;;;16.80;;
40695;SDS011;40425;51.102;17.208;2022-09-27T04:04:52;24.30;;;17.40;;
40695;SDS011;40425;51.102;17.208;2022-09-27T04:09:53;32.87;;;17.40;;
40695;SDS011;40425;51.102;17.208;2022-09-27T04:14:54;24.98;;;16.95;;
40695;SDS011;40425;51.102;17.208;2022-09-27T04:19:55;24.57;;;17.87;;
40695;SDS011;40425;51.102;17.208;2022-09-27T04:24:56;24.33;;;16.70;;
40695;SDS011;40425;51.102;17.208;2022-09-27T04:29:57;26.88;;;17.23;;
40695;SDS011;40425;51.102;17.208;2022-09-27T04:34:58;25.63;;;18.07;;
40695;SDS011;40425;51.102;17.208;2022-09-27T04:40:17;27.63;;;17.97;;
40695;SDS011;40425;51.102;17.208;2022-09-27T04:45:19;24.77;;;17.27;;
40695;SDS011;40425;51.102;17.208;2022-09-27T04:50:20;35.93;;;20.27;;
40695;SDS011;40425;51.102;17.208;2022-09-27T04:55:21;26.00;;;19.35;;
40695;SDS011;40425;51.102;17.208;2022-09-27T05:00:22;25.92;;;19.40;;
40695;SDS011;40425;51.102;17.208;2022-09-27T05:05:23;27.08;;;20.08;;
40695;SDS011;40425;51.102;17.208;2022-09-27T05:10:24;25.27;;;19.60;;
40695;SDS011;40425;51.102;17.208;2022-09-27T05:15:25;28.15;;;20.33;;
40695;SDS011;40425;51.102;17.208;2022-09-27T05:20:26;23.63;;;19.13;;
40695;SDS011;40425;51.102;17.208;2022-09-27T05:25:27;24.73;;;18.88;;
40695;SDS011;40425;51.102;17.208;2022-09-27T05:30:30;31.52;;;20.88;;
40695;SDS011;40425;51.102;17.208;2022-09-27T05:35:31;28.00;;;18.85;;
40695;SDS011;40425;51.102;17.208;2022-09-27T05:40:33;30.83;;;21.13;;
40695;SDS011;40425;51.102;17.208;2022-09-27T05:45:33;27.98;;;20.13;;
40695;SDS011;40425;51.102;17.208;2022-09-27T05:50:34;26.20;;;19.52;;
40695;SDS011;40425;51.102;17.208;2022-09-27T05:55:36;24.23;;;19.45;;
40695;SDS011;40425;51.102;17.208;2022-09-27T06:00:37;24.20;;;18.98;;
40695;SDS011;40425;51.102;17.208;2022-09-27T06:05:38;28.17;;;19.40;;
40695;SDS011;40425;51.102;17.208;2022-09-27T06:10:40;30.50;;;20.77;;
40695;SDS011;40425;51.102;17.208;2022-09-27T06:15:41;23.98;;;18.23;;
40695;SDS011;40425;51.102;17.208;2022-09-27T06:20:44;23.58;;;17.40;;
40695;SDS011;40425;51.102;17.208;2022-09-27T06:25:45;25.98;;;18.73;;
40695;SDS011;40425;51.102;17.208;2022-09-27T06:30:47;25.95;;;18.95;;
40695;SDS011;40425;51.102;17.208;2022-09-27T06:35:49;28.88;;;20.60;;
40695;SDS011;40425;51.102;17.208;2022-09-27T06:40:51;24.70;;;19.52;;
40695;SDS011;40425;51.102;17.208;2022-09-27T06:45:52;25.58;;;19.13;;
40695;SDS011;40425;51.102;17.208;2022-09-27T06:50:54;26.63;;;18.70;;
40695;SDS011;40425;51.102;17.208;2022-09-27T06:55:57;28.98;;;19.27;;
40695;SDS011;40425;51.102;17.208;2022-09-27T07:00:59;27.95;;;20.15;;
40695;SDS011;40425;51.102;17.208;2022-09-27T07:06:01;31.80;;;19.75;;
40695;SDS011;40425;51.102;17.208;2022-09-27T07:11:04;24.35;;;19.25;;
40695;SDS011;40425;51.102;17.208;2022-09-27T07:16:06;25.52;;;18.15;;
40695;SDS011;40425;51.102;17.208;2022-09-27T07:21:07;28.58;;;18.65;;
40695;SDS011;40425;51.102;17.208;2022-09-27T07:26:09;33.25;;;18.98;;
40695;SDS011;40425;51.102;17.208;2022-09-27T07:31:12;23.35;;;17.65;;
40695;SDS011;40425;51.102;17.208;2022-09-27T07:36:13;19.63;;;16.67;;
40695;SDS011;40425;51.102;17.208;2022-09-27T07:41:14;25.40;;;17.23;;
40695;SDS011;40425;51.102;17.208;2022-09-27T07:46:15;22.63;;;17.58;;
40695;SDS011;40425;51.102;17.208;2022-09-27T07:51:16;23.27;;;16.02;;
40695;SDS011;40425;51.102;17.208;2022-09-27T07:56:17;21.50;;;17.08;;
40695;SDS011;40425;51.102;17.208;2022-09-27T08:01:17;24.90;;;17.48;;
40695;SDS011;40425;51.102;17.208;2022-09-27T08:06:18;26.80;;;17.55;;
40695;SDS011;40425;51.102;17.208;2022-09-27T08:11:19;23.33;;;17.67;;
40695;SDS011;40425;51.102;17.208;2022-09-27T08:16:21;27.77;;;18.23;;
40695;SDS011;40425;51.102;17.208;2022-09-27T08:21:22;23.45;;;18.20;;
40695;SDS011;40425;51.102;17.208;2022-09-27T08:26:23;22.13;;;17.27;;
40695;SDS011;40425;51.102;17.208;2022-09-27T08:31:24;25.23;;;18.17;;
40695;SDS011;40425;51.102;17.208;2022-09-27T08:36:25;24.27;;;18.00;;
40695;SDS011;40425;51.102;17.208;2022-09-27T08:51:50;21.08;;;16.42;;
40695;SDS011;40425;51.102;17.208;2022-09-27T08:56:55;24.67;;;16.90;;
40695;SDS011;40425;51.102;17.208;2022-09-27T09:02:02;25.60;;;16.10;;
40695;SDS011;40425;51.102;17.208;2022-09-27T09:23:17;21.17;;;15.45;;
40695;SDS011;40425;51.102;17.208;2022-09-27T09:28:36;20.83;;;14.70;;
40695;SDS011;40425;51.102;17.208;2022-09-27T09:33:54;18.45;;;14.77;;
40695;SDS011;40425;51.102;17.208;2022-09-27T09:39:09;31.50;;;16.85;;
40695;SDS011;40425;51.102;17.208;2022-09-27T09:44:17;20.85;;;14.63;;
40695;SDS011;40425;51.102;17.208;2022-09-27T09:49:33;17.10;;;13.38;;
40695;SDS011;40425;51.102;17.208;2022-09-27T09:54:50;15.07;;;11.75;;
40695;SDS011;40425;51.102;17.208;2022-09-27T10:00:13;14.85;;;13.23;;
40695;SDS011;40425;51.102;17.208;2022-09-27T10:05:17;19.98;;;13.60;;
40695;SDS011;40425;51.102;17.208;2022-09-27T10:10:20;17.60;;;13.77;;
40695;SDS011;40425;51.102;17.208;2022-09-27T10:15:22;18.67;;;14.40;;
40695;SDS011;40425;51.102;17.208;2022-09-27T10:20:44;16.52;;;14.23;;
40695;SDS011;40425;51.102;17.208;2022-09-27T10:25:56;15.10;;;12.15;;
40695;SDS011;40425;51.102;17.208;2022-09-27T10:31:01;14.13;;;11.85;;
40695;SDS011;40425;51.102;17.208;2022-09-27T10:36:03;14.98;;;11.77;;
40695;SDS011;40425;51.102;17.208;2022-09-27T10:41:36;17.97;;;13.07;;
40695;SDS011;40425;51.102;17.208;2022-09-27T10:46:38;15.85;;;11.68;;
40695;SDS011;40425;51.102;17.208;2022-09-27T10:51:39;14.38;;;11.35;;
40695;SDS011;40425;51.102;17.208;2022-09-27T10:56:40;15.05;;;13.07;;
40695;SDS011;40425;51.102;17.208;2022-09-27T11:01:42;14.95;;;13.02;;
40695;SDS011;40425;51.102;17.208;2022-09-27T11:06:45;17.58;;;12.85;;
40695;SDS011;40425;51.102;17.208;2022-09-27T11:11:46;15.15;;;12.98;;
40695;SDS011;40425;51.102;17.208;2022-09-27T11:33:38;13.75;;;11.27;;
40695;SDS011;40425;51.102;17.208;2022-09-27T11:38:55;14.50;;;10.98;;
40695;SDS011;40425;51.102;17.208;2022-09-27T11:44:27;13.00;;;11.23;;
40695;SDS011;40425;51.102;17.208;2022-09-27T11:50:04;14.73;;;12.38;;
40695;SDS011;40425;51.102;17.208;2022-09-27T11:55:19;11.90;;;10.70;;
40695;SDS011;40425;51.102;17.208;2022-09-27T12:16:22;10.43;;;7.40;;
40695;SDS011;40425;51.102;17.208;2022-09-27T12:21:25;7.95;;;6.88;;
40695;SDS011;40425;51.102;17.208;2022-09-27T12:26:41;7.40;;;6.57;;
40695;SDS011;40425;51.102;17.208;2022-09-27T12:32:02;5.97;;;5.35;;
40695;SDS011;40425;51.102;17.208;2022-09-27T12:42:18;7.40;;;5.10;;
40695;SDS011;40425;51.102;17.208;2022-09-27T12:52:33;7.13;;;5.65;;
40695;SDS011;40425;51.102;17.208;2022-09-27T13:13:32;7.80;;;6.03;;
40695;SDS011;40425;51.102;17.208;2022-09-27T13:33:53;9.43;;;8.27;;
40695;SDS011;40425;51.102;17.208;2022-09-27T13:49:30;5.55;;;5.05;;
40695;SDS011;40425;51.102;17.208;2022-09-27T13:54:50;7.63;;;4.60;;
40695;SDS011;40425;51.102;17.208;2022-09-27T13:59:53;8.02;;;7.22;;
40695;SDS011;40425;51.102;17.208;2022-09-27T14:04:59;8.63;;;5.72;;
40695;SDS011;40425;51.102;17.208;2022-09-27T14:10:02;10.80;;;5.50;;
40695;SDS011;40425;51.102;17.208;2022-09-27T14:15:05;8.18;;;7.20;;
40695;SDS011;40425;51.102;17.208;2022-09-27T14:20:27;7.32;;;6.63;;
40695;SDS011;40425;51.102;17.208;2022-09-27T14:25:43;8.32;;;6.22;;
40695;SDS011;40425;51.102;17.208;2022-09-27T14:30:46;7.32;;;5.85;;
40695;SDS011;40425;51.102;17.208;2022-09-27T14:35:47;6.47;;;5.43;;
40695;SDS011;40425;51.102;17.208;2022-09-27T14:41:10;7.70;;;4.85;;
40695;SDS011;40425;51.102;17.208;2022-09-27T14:46:27;7.22;;;5.13;;
40695;SDS011;40425;51.102;17.208;2022-09-27T14:51:33;5.03;;;4.05;;
40695;SDS011;40425;51.102;17.208;2022-09-27T14:56:35;5.38;;;4.20;;
40695;SDS011;40425;51.102;17.208;2022-09-27T15:01:37;5.80;;;3.72;;
40695;SDS011;40425;51.102;17.208;2022-09-27T15:06:39;9.02;;;5.22;;
40695;SDS011;40425;51.102;17.208;2022-09-27T15:11:43;7.60;;;5.18;;
40695;SDS011;40425;51.102;17.208;2022-09-27T15:16:48;7.25;;;6.05;;
40695;SDS011;40425;51.102;17.208;2022-09-27T15:21:51;7.35;;;5.63;;
40695;SDS011;40425;51.102;17.208;2022-09-27T15:26:52;8.02;;;6.30;;
40695;SDS011;40425;51.102;17.208;2022-09-27T15:32:01;8.48;;;6.28;;
40695;SDS011;40425;51.102;17.208;2022-09-27T15:37:04;14.05;;;7.50;;
40695;SDS011;40425;51.102;17.208;2022-09-27T15:58:06;12.32;;;7.18;;
40695;SDS011;40425;51.102;17.208;2022-09-27T16:03:19;11.68;;;6.90;;
40695;SDS011;40425;51.102;17.208;2022-09-27T16:08:21;11.50;;;6.70;;
40695;SDS011;40425;51.102;17.208;2022-09-27T16:13:22;9.05;;;6.40;;
40695;SDS011;40425;51.102;17.208;2022-09-27T16:18:24;10.00;;;6.95;;
40695;SDS011;40425;51.102;17.208;2022-09-27T16:23:25;14.15;;;7.88;;
40695;SDS011;40425;51.102;17.208;2022-09-27T16:28:26;14.77;;;6.60;;
40695;SDS011;40425;51.102;17.208;2022-09-27T16:33:27;11.30;;;7.30;;
40695;SDS011;40425;51.102;17.208;2022-09-27T16:38:28;11.40;;;7.18;;
40695;SDS011;40425;51.102;17.208;2022-09-27T16:43:29;8.80;;;6.35;;
40695;SDS011;40425;51.102;17.208;2022-09-27T16:48:33;3.50;;;1.10;;
40695;SDS011;40425;51.102;17.208;2022-09-27T16:53:34;2.30;;;0.80;;
40695;SDS011;40425;51.102;17.208;2022-09-27T16:58:35;2.88;;;1.02;;
40695;SDS011;40425;51.102;17.208;2022-09-27T17:03:36;2.42;;;1.00;;
40695;SDS011;40425;51.102;17.208;2022-09-27T17:08:37;4.43;;;0.35;;
40695;SDS011;40425;51.102;17.208;2022-09-27T17:13:38;4.53;;;1.00;;
40695;SDS011;40425;51.102;17.208;2022-09-27T17:18:40;2.35;;;0.28;;
40695;SDS011;40425;51.102;17.208;2022-09-27T17:23:41;1.20;;;0.30;;
40695;SDS011;40425;51.102;17.208;2022-09-27T17:28:43;2.28;;;0.10;;
40695;SDS011;40425;51.102;17.208;2022-09-27T17:33:45;1.60;;;0.20;;
40695;SDS011;40425;51.102;17.208;2022-09-27T17:38:47;4.07;;;0.15;;
40695;SDS011;40425;51.102;17.208;2022-09-27T17:43:54;0.65;;;0.20;;
40695;SDS011;40425;51.102;17.208;2022-09-27T17:48:57;0.90;;;0.20;;
40695;SDS011;40425;51.102;17.208;2022-09-27T17:54:18;4.85;;;1.20;;
40695;SDS011;40425;51.102;17.208;2022-09-27T17:59:23;7.05;;;1.95;;
40695;SDS011;40425;51.102;17.208;2022-09-27T18:04:25;8.50;;;2.38;;
40695;SDS011;40425;51.102;17.208;2022-09-27T18:09:25;14.48;;;3.97;;
40695;SDS011;40425;51.102;17.208;2022-09-27T18:14:27;13.95;;;6.03;;
40695;SDS011;40425;51.102;17.208;2022-09-27T18:19:28;4.90;;;2.25;;
40695;SDS011;40425;51.102;17.208;2022-09-27T18:24:29;7.03;;;1.65;;
40695;SDS011;40425;51.102;17.208;2022-09-27T18:29:31;9.68;;;3.05;;
40695;SDS011;40425;51.102;17.208;2022-09-27T18:34:31;9.63;;;6.07;;
40695;SDS011;40425;51.102;17.208;2022-09-27T18:39:32;6.57;;;4.30;;
40695;SDS011;40425;51.102;17.208;2022-09-27T18:44:35;9.07;;;5.43;;
40695;SDS011;40425;51.102;17.208;2022-09-27T18:49:36;14.95;;;9.20;;
40695;SDS011;40425;51.102;17.208;2022-09-27T18:54:37;16.15;;;10.45;;
40695;SDS011;40425;51.102;17.208;2022-09-27T18:59:39;17.70;;;11.23;;
40695;SDS011;40425;51.102;17.208;2022-09-27T19:04:41;18.60;;;10.45;;
40695;SDS011;40425;51.102;17.208;2022-09-27T19:09:45;21.27;;;13.88;;
40695;SDS011;40425;51.102;17.208;2022-09-27T19:14:48;17.42;;;12.02;;
40695;SDS011;40425;51.102;17.208;2022-09-27T19:19:51;18.35;;;10.00;;
40695;SDS011;40425;51.102;17.208;2022-09-27T19:24:53;16.42;;;10.30;;
40695;SDS011;40425;51.102;17.208;2022-09-27T19:29:56;14.52;;;8.68;;
40695;SDS011;40425;51.102;17.208;2022-09-27T19:34:58;14.52;;;8.25;;
40695;SDS011;40425;51.102;17.208;2022-09-27T19:39:59;17.13;;;9.00;;
40695;SDS011;40425;51.102;17.208;2022-09-27T19:45:00;12.73;;;7.32;;
40695;SDS011;40425;51.102;17.208;2022-09-27T19:50:00;13.63;;;7.80;;
40695;SDS011;40425;51.102;17.208;2022-09-27T19:55:01;15.00;;;9.82;;
40695;SDS011;40425;51.102;17.208;2022-09-27T20:00:03;18.93;;;12.03;;
40695;SDS011;40425;51.102;17.208;2022-09-27T20:05:04;28.23;;;16.02;;
40695;SDS011;40425;51.102;17.208;2022-09-27T20:10:05;45.50;;;23.50;;
40695;SDS011;40425;51.102;17.208;2022-09-27T20:15:07;58.22;;;28.02;;
40695;SDS011;40425;51.102;17.208;2022-09-27T20:20:10;28.05;;;14.82;;
40695;SDS011;40425;51.102;17.208;2022-09-27T20:25:12;15.20;;;8.32;;
40695;SDS011;40425;51.102;17.208;2022-09-27T20:30:14;15.77;;;8.43;;
40695;SDS011;40425;51.102;17.208;2022-09-27T20:35:15;18.50;;;9.10;;
40695;SDS011;40425;51.102;17.208;2022-09-27T20:40:16;28.07;;;15.93;;
40695;SDS011;40425;51.102;17.208;2022-09-27T20:45:17;19.23;;;9.73;;
40695;SDS011;40425;51.102;17.208;2022-09-27T20:50:18;14.40;;;8.13;;
40695;SDS011;40425;51.102;17.208;2022-09-27T20:55:19;18.77;;;8.17;;
40695;SDS011;40425;51.102;17.208;2022-09-27T21:00:20;31.73;;;14.10;;
40695;SDS011;40425;51.102;17.208;2022-09-27T21:05:20;20.00;;;10.60;;
40695;SDS011;40425;51.102;17.208;2022-09-27T21:10:21;15.17;;;9.93;;
40695;SDS011;40425;51.102;17.208;2022-09-27T21:15:22;12.60;;;6.80;;
40695;SDS011;40425;51.102;17.208;2022-09-27T21:20:23;14.03;;;5.27;;
40695;SDS011;40425;51.102;17.208;2022-09-27T21:25:24;11.93;;;6.13;;
40695;SDS011;40425;51.102;17.208;2022-09-27T21:30:25;9.47;;;4.77;;
40695;SDS011;40425;51.102;17.208;2022-09-27T21:35:26;130.63;;;40.53;;
40695;SDS011;40425;51.102;17.208;2022-09-27T21:40:27;15.23;;;6.67;;
40695;SDS011;40425;51.102;17.208;2022-09-27T21:45:28;49.27;;;15.97;;
40695;SDS011;40425;51.102;17.208;2022-09-27T21:50:31;71.00;;;21.53;;
40695;SDS011;40425;51.102;17.208;2022-09-27T21:55:33;28.97;;;9.97;;
40695;SDS011;40425;51.102;17.208;2022-09-27T22:00:33;24.77;;;8.07;;
40695;SDS011;40425;51.102;17.208;2022-09-27T22:05:34;15.20;;;7.03;;
40695;SDS011;40425;51.102;17.208;2022-09-27T22:10:44;13.37;;;5.67;;
40695;SDS011;40425;51.102;17.208;2022-09-27T22:15:45;20.30;;;7.37;;
40695;SDS011;40425;51.102;17.208;2022-09-27T22:20:49;10.67;;;5.33;;
40695;SDS011;40425;51.102;17.208;2022-09-27T22:25:50;26.27;;;7.53;;
40695;SDS011;40425;51.102;17.208;2022-09-27T22:30:51;14.80;;;6.10;;
40695;SDS011;40425;51.102;17.208;2022-09-27T22:35:52;17.33;;;5.17;;
40695;SDS011;40425;51.102;17.208;2022-09-27T22:40:53;10.65;;;4.75;;
40695;SDS011;40425;51.102;17.208;2022-09-27T22:45:55;10.10;;;4.77;;
40695;SDS011;40425;51.102;17.208;2022-09-27T22:50:59;10.25;;;4.63;;
40695;SDS011;40425;51.102;17.208;2022-09-27T22:56:04;9.38;;;3.42;;
40695;SDS011;40425;51.102;17.208;2022-09-27T23:01:14;6.57;;;3.93;;
40695;SDS011;40425;51.102;17.208;2022-09-27T23:06:20;10.93;;;3.80;;
40695;SDS011;40425;51.102;17.208;2022-09-27T23:11:21;15.47;;;4.30;;
40695;SDS011;40425;51.102;17.208;2022-09-27T23:16:22;9.33;;;3.30;;
40695;SDS011;40425;51.102;17.208;2022-09-27T23:21:24;8.73;;;4.57;;
40695;SDS011;40425;51.102;17.208;2022-09-27T23:26:26;10.07;;;4.53;;
40695;SDS011;40425;51.102;17.208;2022-09-27T23:31:28;8.70;;;4.63;;
40695;SDS011;40425;51.102;17.208;2022-09-27T23:36:30;8.23;;;3.70;;
40695;SDS011;40425;51.102;17.208;2022-09-27T23:41:33;8.10;;;4.77;;
40695;SDS011;40425;51.102;17.208;2022-09-27T23:46:34;24.00;;;7.30;;
40695;SDS011;40425;51.102;17.208;2022-09-27T23:51:35;14.33;;;6.47;;
40695;SDS011;40425;51.102;17.208;2022-09-27T23:56:36;23.20;;;8.57;;
